createdAt,value
2022-10-17T00:00:29.407Z,15.96
2022-10-17T00:01:29.502Z,15.96
2022-10-17T00:02:29.541Z,15.96
2022-10-17T00:03:29.620Z,15.96
2022-10-17T00:04:29.762Z,15.96
2022-10-17T00:05:29.803Z,15.94
2022-10-17T00:06:29.876Z,15.94
2022-10-17T00:07:30.538Z,15.94
2022-10-17T00:08:30.065Z,15.93
2022-10-17T00:09:30.125Z,15.94
2022-10-17T00:10:30.237Z,15.93
2022-10-17T00:11:30.308Z,15.94
2022-10-17T00:12:30.384Z,15.93
2022-10-17T00:13:30.557Z,15.92
2022-10-17T00:14:30.561Z,15.92
2022-10-17T00:15:30.667Z,15.88
2022-10-17T00:16:30.746Z,15.89
2022-10-17T00:17:31.160Z,15.89
2022-10-17T00:18:30.920Z,15.89
2022-10-17T00:19:30.995Z,15.88
2022-10-17T00:20:31.093Z,15.86
2022-10-17T00:21:31.164Z,15.88
2022-10-17T00:22:31.278Z,15.86
2022-10-17T00:23:31.344Z,15.86
2022-10-17T00:24:31.423Z,15.86
2022-10-17T00:25:31.536Z,15.86
2022-10-17T00:26:31.582Z,15.84
2022-10-17T00:27:31.685Z,15.84
2022-10-17T00:28:31.850Z,15.82
2022-10-17T00:29:31.822Z,15.82
2022-10-17T00:30:31.923Z,15.82
2022-10-17T00:31:31.988Z,15.81
2022-10-17T00:32:32.097Z,15.79
2022-10-17T00:33:32.151Z,15.78
2022-10-17T00:34:32.242Z,15.78
2022-10-17T00:35:32.359Z,15.75
2022-10-17T00:36:32.406Z,15.74
2022-10-17T00:37:32.505Z,15.75
2022-10-17T00:38:32.541Z,15.72
2022-10-17T00:39:32.607Z,15.72
2022-10-17T00:40:32.713Z,15.70
2022-10-17T00:41:32.761Z,15.72
2022-10-17T00:42:32.848Z,15.72
2022-10-17T00:43:32.933Z,15.70
2022-10-17T00:44:33.052Z,15.68
2022-10-17T00:45:33.112Z,15.68
2022-10-17T00:46:33.173Z,15.67
2022-10-17T00:47:33.287Z,15.66
2022-10-17T00:48:33.324Z,15.64
2022-10-17T00:49:33.412Z,15.61
2022-10-17T00:50:33.506Z,15.59
2022-10-17T00:51:33.587Z,15.57
2022-10-17T00:52:33.666Z,15.57
2022-10-17T00:53:33.776Z,15.56
2022-10-17T00:54:33.864Z,15.54
2022-10-17T00:55:33.988Z,15.56
2022-10-17T00:56:34.048Z,15.56
2022-10-17T00:57:34.131Z,15.52
2022-10-17T00:58:34.216Z,15.54
2022-10-17T00:59:34.313Z,15.52
2022-10-17T01:00:34.403Z,15.51
2022-10-17T01:01:34.552Z,15.51
2022-10-17T01:02:34.561Z,15.48
2022-10-17T01:03:34.654Z,15.48
2022-10-17T01:04:34.750Z,15.45
2022-10-17T01:05:34.849Z,15.43
2022-10-17T01:06:34.925Z,15.43
2022-10-17T01:07:37.219Z,15.42
2022-10-17T01:08:35.113Z,15.43
2022-10-17T01:09:35.213Z,15.42
2022-10-17T01:10:35.270Z,15.42
2022-10-17T01:11:35.315Z,15.42
2022-10-17T01:12:35.396Z,15.42
2022-10-17T01:13:35.480Z,15.41
2022-10-17T01:14:35.572Z,15.41
2022-10-17T01:15:35.683Z,15.41
2022-10-17T01:16:35.762Z,15.39
2022-10-17T01:17:35.836Z,15.39
2022-10-17T01:18:35.920Z,15.39
2022-10-17T01:19:35.998Z,15.39
2022-10-17T01:20:36.102Z,15.39
2022-10-17T01:21:36.156Z,15.36
2022-10-17T01:22:36.203Z,15.35
2022-10-17T01:23:36.295Z,15.33
2022-10-17T01:24:36.365Z,15.31
2022-10-17T01:25:36.466Z,15.28
2022-10-17T01:26:36.564Z,15.26
2022-10-17T01:27:36.636Z,15.23
2022-10-17T01:28:36.811Z,15.21
2022-10-17T01:29:36.816Z,15.20
2022-10-17T01:30:36.919Z,15.17
2022-10-17T01:31:37.016Z,15.15
2022-10-17T01:32:37.095Z,15.13
2022-10-17T01:33:37.176Z,15.12
2022-10-17T01:34:37.279Z,15.11
2022-10-17T01:35:37.357Z,15.09
2022-10-17T01:36:37.411Z,15.08
2022-10-17T01:37:37.494Z,15.08
2022-10-17T01:38:37.575Z,15.06
2022-10-17T01:39:38.485Z,15.06
2022-10-17T01:40:37.789Z,15.05
2022-10-17T01:41:37.852Z,15.05
2022-10-17T01:42:37.927Z,15.05
2022-10-17T01:43:38.004Z,15.05
2022-10-17T01:44:38.096Z,15.06
2022-10-17T01:45:38.212Z,15.08
2022-10-17T01:46:38.246Z,15.08
2022-10-17T01:47:38.324Z,15.09
2022-10-17T01:48:38.407Z,15.09
2022-10-17T01:49:38.483Z,15.11
2022-10-17T01:50:38.584Z,15.09
2022-10-17T01:51:38.661Z,15.11
2022-10-17T01:52:38.773Z,15.08
2022-10-17T01:53:38.870Z,15.08
2022-10-17T01:54:38.941Z,15.08
2022-10-17T01:55:39.079Z,15.08
2022-10-17T01:56:39.119Z,15.08
2022-10-17T01:57:39.209Z,15.09
2022-10-17T01:58:39.326Z,15.11
2022-10-17T01:59:39.376Z,15.11
2022-10-17T02:00:39.461Z,15.12
2022-10-17T02:01:39.595Z,15.12
2022-10-17T02:02:39.595Z,15.11
2022-10-17T02:03:39.677Z,15.09
2022-10-17T02:04:39.763Z,15.08
2022-10-17T02:05:39.872Z,15.08
2022-10-17T02:06:39.938Z,15.08
2022-10-17T02:07:40.001Z,15.06
2022-10-17T02:08:40.101Z,15.05
2022-10-17T02:09:40.137Z,15.05
2022-10-17T02:10:40.249Z,15.03
2022-10-17T02:11:40.286Z,15.01
2022-10-17T02:12:40.376Z,14.99
2022-10-17T02:13:40.458Z,14.98
2022-10-17T02:14:40.554Z,14.95
2022-10-17T02:15:40.644Z,14.93
2022-10-17T02:16:40.758Z,14.91
2022-10-17T02:17:40.817Z,14.90
2022-10-17T02:18:40.882Z,14.88
2022-10-17T02:19:40.948Z,14.87
2022-10-17T02:20:41.046Z,14.86
2022-10-17T02:21:41.145Z,14.84
2022-10-17T02:22:41.184Z,14.83
2022-10-17T02:23:41.278Z,14.83
2022-10-17T02:24:41.343Z,14.83
2022-10-17T02:25:41.442Z,14.81
2022-10-17T02:26:41.525Z,14.83
2022-10-17T02:27:41.607Z,14.83
2022-10-17T02:28:41.749Z,14.84
2022-10-17T02:29:41.783Z,14.81
2022-10-17T02:30:41.837Z,14.83
2022-10-17T02:31:41.917Z,14.83
2022-10-17T02:32:45.428Z,14.84
2022-10-17T02:33:42.088Z,14.83
2022-10-17T02:34:42.172Z,14.83
2022-10-17T02:35:42.286Z,14.84
2022-10-17T02:36:42.319Z,14.84
2022-10-17T02:37:42.404Z,14.86
2022-10-17T02:38:42.487Z,14.84
2022-10-17T02:39:42.562Z,14.81
2022-10-17T02:40:42.648Z,14.78
2022-10-17T02:41:42.742Z,14.74
2022-10-17T02:42:42.800Z,14.71
2022-10-17T02:43:42.903Z,14.68
2022-10-17T02:44:42.947Z,14.67
2022-10-17T02:45:43.059Z,14.65
2022-10-17T02:46:43.140Z,14.61
2022-10-17T02:47:43.221Z,14.61
2022-10-17T02:48:43.300Z,14.57
2022-10-17T02:49:43.407Z,14.56
2022-10-17T02:50:43.476Z,14.56
2022-10-17T02:51:43.515Z,14.54
2022-10-17T02:52:43.609Z,14.53
2022-10-17T02:53:43.679Z,14.53
2022-10-17T02:54:43.754Z,14.53
2022-10-17T02:55:43.900Z,14.50
2022-10-17T02:56:43.949Z,14.50
2022-10-17T02:57:44.025Z,14.47
2022-10-17T02:58:44.057Z,14.47
2022-10-17T02:59:44.138Z,14.44
2022-10-17T03:00:44.230Z,14.43
2022-10-17T03:01:44.403Z,14.44
2022-10-17T03:02:44.401Z,14.44
2022-10-17T03:03:44.488Z,14.43
2022-10-17T03:04:44.569Z,14.43
2022-10-17T03:05:44.672Z,14.43
2022-10-17T03:06:44.748Z,14.44
2022-10-17T03:07:44.836Z,14.46
2022-10-17T03:08:44.925Z,14.46
2022-10-17T03:09:45.005Z,14.46
2022-10-17T03:10:45.119Z,14.44
2022-10-17T03:11:45.165Z,14.44
2022-10-17T03:12:45.241Z,14.44
2022-10-17T03:13:45.326Z,14.46
2022-10-17T03:14:45.413Z,14.44
2022-10-17T03:15:45.511Z,14.46
2022-10-17T03:16:45.586Z,14.43
2022-10-17T03:18:49.328Z,14.39
2022-10-17T03:19:45.815Z,14.38
2022-10-17T03:20:45.924Z,14.35
2022-10-17T03:21:46.009Z,14.31
2022-10-17T03:22:46.090Z,14.29
2022-10-17T03:23:46.172Z,14.28
2022-10-17T03:24:46.236Z,14.25
2022-10-17T03:25:46.347Z,14.25
2022-10-17T03:27:46.502Z,14.25
2022-10-17T03:28:54.637Z,14.24
2022-10-17T03:29:46.652Z,14.21
2022-10-17T03:30:46.799Z,14.21
2022-10-17T03:31:46.814Z,14.20
2022-10-17T03:32:46.891Z,14.21
2022-10-17T03:33:46.970Z,14.24
2022-10-17T03:34:47.062Z,14.24
2022-10-17T03:35:47.262Z,14.25
2022-10-17T03:36:47.245Z,14.25
2022-10-17T03:37:47.283Z,14.27
2022-10-17T03:38:47.360Z,14.25
2022-10-17T03:39:47.435Z,14.24
2022-10-17T03:40:47.529Z,14.24
2022-10-17T03:41:47.614Z,14.21
2022-10-17T03:42:47.689Z,14.21
2022-10-17T03:43:47.776Z,14.21
2022-10-17T03:44:47.871Z,14.21
2022-10-17T03:45:47.968Z,14.20
2022-10-17T03:46:48.044Z,14.24
2022-10-17T03:47:48.140Z,14.25
2022-10-17T03:48:48.189Z,14.25
2022-10-17T03:49:48.259Z,14.27
2022-10-17T03:50:48.369Z,14.28
2022-10-17T03:51:48.409Z,14.27
2022-10-17T03:52:48.533Z,14.28
2022-10-17T03:53:48.590Z,14.28
2022-10-17T03:54:48.684Z,14.29
2022-10-17T03:55:48.802Z,14.28
2022-10-17T03:56:48.900Z,14.28
2022-10-17T03:57:48.916Z,14.28
2022-10-17T03:58:49.043Z,14.28
2022-10-17T03:59:49.075Z,14.29
2022-10-17T04:00:49.168Z,14.29
2022-10-17T04:01:49.238Z,14.29
2022-10-17T04:02:49.306Z,14.28
2022-10-17T04:03:49.401Z,14.28
2022-10-17T04:04:49.535Z,14.27
2022-10-17T04:05:49.606Z,14.27
2022-10-17T04:06:49.644Z,14.27
2022-10-17T04:07:49.728Z,14.25
2022-10-17T04:08:49.821Z,14.24
2022-10-17T04:09:49.886Z,14.25
2022-10-17T04:10:50.033Z,14.24
2022-10-17T04:11:50.026Z,14.25
2022-10-17T04:12:50.102Z,14.24
2022-10-17T04:13:50.193Z,14.21
2022-10-17T04:14:50.290Z,14.24
2022-10-17T04:15:50.394Z,14.24
2022-10-17T04:16:50.457Z,14.24
2022-10-17T04:17:50.544Z,14.25
2022-10-17T04:18:50.611Z,14.24
2022-10-17T04:19:50.690Z,14.24
2022-10-17T04:20:50.773Z,14.21
2022-10-17T04:21:50.857Z,14.24
2022-10-17T04:22:50.941Z,14.21
2022-10-17T04:23:51.051Z,14.21
2022-10-17T04:24:51.118Z,14.20
2022-10-17T04:25:51.212Z,14.20
2022-10-17T04:26:51.292Z,14.19
2022-10-17T04:27:51.388Z,14.17
2022-10-17T04:28:51.485Z,14.16
2022-10-17T04:29:51.549Z,14.14
2022-10-17T04:30:53.993Z,14.13
2022-10-17T04:31:51.730Z,14.12
2022-10-17T04:32:51.790Z,14.09
2022-10-17T04:33:51.882Z,14.06
2022-10-17T04:34:51.964Z,14.06
2022-10-17T04:35:52.120Z,14.02
2022-10-17T04:36:52.117Z,14.01
2022-10-17T04:37:52.198Z,13.98
2022-10-17T04:38:52.291Z,13.96
2022-10-17T04:39:52.369Z,13.96
2022-10-17T04:40:52.476Z,13.95
2022-10-17T04:41:52.534Z,13.92
2022-10-17T04:42:52.617Z,13.89
2022-10-17T04:43:52.696Z,13.88
2022-10-17T04:44:52.770Z,13.87
2022-10-17T04:45:52.871Z,13.87
2022-10-17T04:46:52.911Z,13.84
2022-10-17T04:47:53.003Z,13.83
2022-10-17T04:48:53.077Z,13.83
2022-10-17T04:49:53.159Z,13.81
2022-10-17T04:50:53.248Z,13.83
2022-10-17T04:51:53.338Z,13.81
2022-10-17T04:52:53.417Z,13.79
2022-10-17T04:53:53.506Z,13.79
2022-10-17T04:54:53.585Z,13.77
2022-10-17T04:55:53.674Z,13.77
2022-10-17T04:56:53.750Z,13.77
2022-10-17T04:57:53.856Z,13.76
2022-10-17T04:58:53.903Z,13.76
2022-10-17T04:59:53.987Z,13.77
2022-10-17T05:00:54.114Z,13.76
2022-10-17T05:01:54.150Z,13.77
2022-10-17T05:02:54.232Z,13.77
2022-10-17T05:03:54.305Z,13.79
2022-10-17T05:04:54.389Z,13.79
2022-10-17T05:05:54.527Z,13.81
2022-10-17T05:06:54.548Z,13.83
2022-10-17T05:07:54.639Z,13.81
2022-10-17T05:08:54.722Z,13.80
2022-10-17T05:09:54.797Z,13.80
2022-10-17T05:10:54.948Z,13.80
2022-10-17T05:11:54.947Z,13.79
2022-10-17T05:12:55.032Z,13.81
2022-10-17T05:13:55.121Z,13.80
2022-10-17T05:14:55.212Z,13.80
2022-10-17T05:15:55.321Z,13.79
2022-10-17T05:16:55.405Z,13.80
2022-10-17T05:17:55.509Z,13.81
2022-10-17T05:18:55.565Z,13.80
2022-10-17T05:19:55.653Z,13.80
2022-10-17T05:20:55.859Z,13.77
2022-10-17T05:21:55.817Z,13.77
2022-10-17T05:22:55.893Z,13.76
2022-10-17T05:23:55.977Z,13.77
2022-10-17T05:24:56.053Z,13.77
2022-10-17T05:25:56.152Z,13.77
2022-10-17T05:26:56.191Z,13.80
2022-10-17T05:27:56.279Z,13.80
2022-10-17T05:28:56.392Z,13.80
2022-10-17T05:29:56.449Z,13.81
2022-10-17T05:30:56.547Z,13.83
2022-10-17T05:31:56.669Z,13.81
2022-10-17T05:32:56.702Z,13.80
2022-10-17T05:33:56.774Z,13.81
2022-10-17T05:34:56.849Z,13.81
2022-10-17T05:35:56.972Z,13.83
2022-10-17T05:36:57.061Z,13.81
2022-10-17T05:37:57.098Z,13.83
2022-10-17T05:38:57.171Z,13.84
2022-10-17T05:39:57.254Z,13.84
2022-10-17T05:40:57.350Z,13.84
2022-10-17T05:41:57.464Z,13.84
2022-10-17T05:42:57.531Z,13.83
2022-10-17T05:43:59.428Z,13.83
2022-10-17T05:44:57.657Z,13.83
2022-10-17T05:45:57.745Z,13.83
2022-10-17T05:46:57.857Z,13.83
2022-10-17T05:47:57.901Z,13.84
2022-10-17T05:48:57.979Z,13.87
2022-10-17T05:49:58.072Z,13.87
2022-10-17T05:50:58.170Z,13.87
2022-10-17T05:51:58.263Z,13.87
2022-10-17T05:52:58.331Z,13.87
2022-10-17T05:53:58.418Z,13.87
2022-10-17T05:54:58.549Z,13.84
2022-10-17T05:55:58.586Z,13.84
2022-10-17T05:56:58.714Z,13.83
2022-10-17T05:57:58.752Z,13.81
2022-10-17T05:59:01.015Z,13.81
2022-10-17T05:59:58.929Z,13.79
2022-10-17T06:00:59.011Z,13.79
2022-10-17T06:01:59.119Z,13.76
2022-10-17T06:02:59.147Z,13.76
2022-10-17T06:03:59.267Z,13.74
2022-10-17T06:04:59.387Z,13.73
2022-10-17T06:05:59.448Z,13.71
2022-10-17T06:06:59.509Z,13.71
2022-10-17T06:08:01.910Z,13.71
2022-10-17T06:08:59.667Z,13.70
2022-10-17T06:09:59.720Z,13.69
2022-10-17T06:10:59.795Z,13.69
2022-10-17T06:11:59.957Z,13.69
2022-10-17T06:12:59.979Z,13.69
2022-10-17T06:14:00.089Z,13.67
2022-10-17T06:15:00.165Z,13.65
2022-10-17T06:16:00.192Z,13.67
2022-10-17T06:17:00.279Z,13.65
2022-10-17T06:18:00.388Z,13.63
2022-10-17T06:19:00.440Z,13.63
2022-10-17T06:20:00.522Z,13.63
2022-10-17T06:21:00.592Z,13.61
2022-10-17T06:22:00.664Z,13.58
2022-10-17T06:23:00.763Z,13.56
2022-10-17T06:24:00.840Z,13.56
2022-10-17T06:25:00.964Z,13.54
2022-10-17T06:26:00.995Z,13.52
2022-10-17T06:27:01.091Z,13.51
2022-10-17T06:28:01.178Z,13.51
2022-10-17T06:29:01.307Z,13.49
2022-10-17T06:30:01.365Z,13.47
2022-10-17T06:31:01.417Z,13.46
2022-10-17T06:32:01.560Z,13.44
2022-10-17T06:33:01.592Z,13.43
2022-10-17T06:34:01.663Z,13.41
2022-10-17T06:35:01.740Z,13.40
2022-10-17T06:36:01.813Z,13.40
2022-10-17T06:37:01.927Z,13.40
2022-10-17T06:38:01.956Z,13.37
2022-10-17T06:39:02.086Z,13.36
2022-10-17T06:40:02.143Z,13.37
2022-10-17T06:41:02.211Z,13.36
2022-10-17T06:42:02.315Z,13.33
2022-10-17T06:43:02.662Z,13.33
2022-10-17T06:44:02.453Z,13.36
2022-10-17T06:45:02.529Z,13.33
2022-10-17T06:46:02.607Z,13.33
2022-10-17T06:47:02.704Z,13.33
2022-10-17T06:48:02.780Z,13.32
2022-10-17T06:49:02.876Z,13.32
2022-10-17T06:50:02.966Z,13.32
2022-10-17T06:51:03.075Z,13.32
2022-10-17T06:52:03.193Z,13.33
2022-10-17T06:53:03.232Z,13.33
2022-10-17T06:54:03.355Z,13.33
2022-10-17T06:56:03.481Z,13.32
2022-10-17T06:57:03.590Z,13.33
2022-10-17T06:58:03.644Z,13.36
2022-10-17T06:59:03.724Z,13.36
2022-10-17T07:00:03.798Z,13.37
2022-10-17T07:01:03.998Z,13.37
2022-10-17T07:02:03.975Z,13.38
2022-10-17T07:03:04.031Z,13.40
2022-10-17T07:04:04.119Z,13.40
2022-10-17T07:05:04.210Z,13.43
2022-10-17T07:06:04.287Z,13.44
2022-10-17T07:07:04.404Z,13.49
2022-10-17T07:08:04.445Z,13.49
2022-10-17T07:09:04.541Z,13.51
2022-10-17T07:10:04.653Z,13.54
2022-10-17T07:11:04.712Z,13.55
2022-10-17T07:12:04.769Z,13.56
2022-10-17T07:13:04.891Z,13.58
2022-10-17T07:14:04.945Z,13.59
2022-10-17T07:15:05.045Z,13.62
2022-10-17T07:16:05.102Z,13.65
2022-10-17T07:17:05.182Z,13.67
2022-10-17T07:18:05.262Z,13.69
2022-10-17T07:19:05.368Z,13.71
2022-10-17T07:20:05.430Z,13.73
2022-10-17T07:21:05.478Z,13.76
2022-10-17T07:22:05.563Z,13.79
2022-10-17T07:23:05.619Z,13.81
2022-10-17T07:24:05.698Z,13.83
2022-10-17T07:25:05.794Z,13.87
2022-10-17T07:26:05.890Z,13.89
2022-10-17T07:27:05.964Z,13.92
2022-10-17T07:28:06.041Z,13.94
2022-10-17T07:29:06.187Z,13.96
2022-10-17T07:30:06.227Z,13.98
2022-10-17T07:31:06.317Z,13.99
2022-10-17T07:32:06.395Z,14.02
2022-10-17T07:33:06.782Z,14.02
2022-10-17T07:34:06.589Z,14.06
2022-10-17T07:35:06.664Z,14.07
2022-10-17T07:36:06.709Z,14.10
2022-10-17T07:37:06.813Z,14.10
2022-10-17T07:38:06.832Z,14.10
2022-10-17T07:39:06.932Z,14.13
2022-10-17T07:40:06.989Z,14.13
2022-10-17T07:41:07.073Z,14.13
2022-10-17T07:42:07.160Z,14.14
2022-10-17T07:43:07.263Z,14.16
2022-10-17T07:44:07.306Z,14.16
2022-10-17T07:45:07.402Z,14.17
2022-10-17T07:46:07.511Z,14.17
2022-10-17T07:47:07.551Z,14.19
2022-10-17T07:48:07.630Z,14.20
2022-10-17T07:49:07.711Z,14.21
2022-10-17T07:50:07.808Z,14.21
2022-10-17T07:51:07.905Z,14.24
2022-10-17T07:52:07.957Z,14.25
2022-10-17T07:53:08.031Z,14.28
2022-10-17T07:54:08.113Z,14.27
2022-10-17T07:55:08.204Z,14.29
2022-10-17T07:56:08.273Z,14.29
2022-10-17T07:57:08.369Z,14.32
2022-10-17T07:58:08.436Z,14.32
2022-10-17T07:59:09.527Z,14.35
2022-10-17T08:00:08.618Z,14.37
2022-10-17T08:01:10.874Z,14.37
2022-10-17T08:02:08.763Z,14.38
2022-10-17T08:03:08.846Z,14.39
2022-10-17T08:04:08.881Z,14.39
2022-10-17T08:05:09.022Z,14.42
2022-10-17T08:06:09.020Z,14.43
2022-10-17T08:07:20.982Z,14.43
2022-10-17T08:08:09.185Z,14.43
2022-10-17T08:09:09.265Z,14.44
2022-10-17T08:11:09.427Z,14.43
2022-10-17T08:12:09.537Z,14.44
2022-10-17T08:13:09.579Z,14.44
2022-10-17T08:14:09.672Z,14.44
2022-10-17T08:15:09.773Z,14.46
2022-10-17T08:16:09.828Z,14.46
2022-10-17T08:17:09.916Z,14.47
2022-10-17T08:18:10.000Z,14.47
2022-10-17T08:19:10.087Z,14.47
2022-10-17T08:20:10.200Z,14.52
2022-10-17T08:21:10.243Z,14.52
2022-10-17T08:22:10.344Z,14.54
2022-10-17T08:23:10.421Z,14.57
2022-10-17T08:24:10.453Z,14.62
2022-10-17T08:25:10.550Z,14.65
2022-10-17T08:26:10.887Z,14.69
2022-10-17T08:27:10.755Z,14.72
2022-10-17T08:28:10.793Z,14.72
2022-10-17T08:29:10.931Z,14.75
2022-10-17T08:30:10.963Z,14.78
2022-10-17T08:31:11.049Z,14.78
2022-10-17T08:32:11.160Z,14.81
2022-10-17T08:33:11.190Z,14.80
2022-10-17T08:34:11.262Z,14.84
2022-10-17T08:35:11.356Z,14.86
2022-10-17T08:36:11.438Z,14.87
2022-10-17T08:38:13.328Z,14.91
2022-10-17T08:39:11.693Z,14.91
2022-10-17T08:40:11.799Z,14.91
2022-10-17T08:41:11.874Z,14.93
2022-10-17T08:42:11.923Z,14.91
2022-10-17T08:43:12.008Z,14.93
2022-10-17T08:44:12.112Z,14.93
2022-10-17T08:45:12.200Z,14.93
2022-10-17T08:46:12.332Z,14.94
2022-10-17T08:47:12.321Z,14.95
2022-10-17T08:48:12.404Z,14.95
2022-10-17T08:49:12.495Z,14.99
2022-10-17T08:50:12.592Z,14.99
2022-10-17T08:51:12.715Z,15.01
2022-10-17T08:52:12.778Z,15.02
2022-10-17T08:53:12.812Z,15.03
2022-10-17T08:54:12.884Z,15.03
2022-10-17T08:55:13.023Z,15.06
2022-10-17T08:56:19.522Z,15.08
2022-10-17T08:57:13.169Z,15.09
2022-10-17T08:58:13.262Z,15.11
2022-10-17T08:59:13.331Z,15.13
2022-10-17T09:00:13.454Z,15.13
2022-10-17T09:01:13.554Z,15.19
2022-10-17T09:02:13.589Z,15.19
2022-10-17T09:03:13.752Z,15.21
2022-10-17T09:04:13.732Z,15.23
2022-10-17T09:05:13.848Z,15.26
2022-10-17T09:06:13.909Z,15.28
2022-10-17T09:07:13.966Z,15.33
2022-10-17T09:08:14.046Z,15.35
2022-10-17T09:09:14.127Z,15.41
2022-10-17T09:10:14.228Z,15.45
2022-10-17T09:11:14.266Z,15.49
2022-10-17T09:12:14.368Z,15.52
2022-10-17T09:13:14.477Z,15.57
2022-10-17T09:14:14.559Z,15.60
2022-10-17T09:15:14.642Z,15.63
2022-10-17T09:16:14.680Z,15.66
2022-10-17T09:17:14.790Z,15.66
2022-10-17T09:18:17.544Z,15.68
2022-10-17T09:19:14.986Z,15.70
2022-10-17T09:20:15.088Z,15.72
2022-10-17T09:21:15.129Z,15.72
2022-10-17T09:22:15.210Z,15.76
2022-10-17T09:23:15.314Z,15.79
2022-10-17T09:24:16.064Z,15.84
2022-10-17T09:25:15.491Z,15.86
2022-10-17T09:26:15.540Z,15.89
2022-10-17T09:27:15.621Z,15.94
2022-10-17T09:28:15.721Z,15.99
2022-10-17T09:29:15.767Z,16.01
2022-10-17T09:30:21.511Z,16.03
2022-10-17T09:31:15.935Z,16.04
2022-10-17T09:32:16.027Z,16.07
2022-10-17T09:34:31.367Z,16.07
2022-10-17T09:35:33.053Z,16.06
2022-10-17T09:36:32.597Z,16.06
2022-10-17T09:37:32.655Z,16.09
2022-10-17T09:38:32.718Z,16.14
2022-10-17T09:39:32.804Z,16.18
2022-10-17T09:40:32.893Z,16.26
2022-10-17T09:47:52.557Z,16.33
2022-10-17T09:47:59.506Z,16.49
2022-10-17T09:48:57.604Z,16.52
2022-10-17T09:49:57.656Z,16.53
2022-10-17T09:51:08.318Z,16.55
2022-10-17T09:51:57.825Z,16.55
2022-10-17T09:52:57.910Z,16.55
2022-10-17T09:53:57.966Z,16.58
2022-10-17T09:54:58.054Z,16.62
2022-10-17T09:55:58.148Z,16.60
2022-10-17T09:56:58.236Z,16.60
2022-10-17T09:57:58.312Z,16.62
2022-10-17T09:58:58.417Z,16.63
2022-10-17T09:59:58.462Z,16.63
2022-10-17T10:00:58.570Z,16.65
2022-10-17T10:01:58.616Z,16.67
2022-10-17T10:02:58.699Z,16.68
2022-10-17T10:03:58.777Z,16.70
2022-10-17T10:05:04.043Z,16.71
2022-10-17T10:05:58.986Z,16.75
2022-10-17T10:06:59.032Z,16.83
2022-10-17T10:07:59.116Z,16.89
2022-10-17T10:08:59.190Z,16.95
2022-10-17T10:09:59.283Z,17.03
2022-10-17T10:10:59.398Z,17.08
2022-10-17T10:11:59.469Z,17.11
2022-10-17T10:12:59.687Z,17.15
2022-10-17T10:14:00.422Z,17.15
2022-10-17T10:15:00.741Z,17.20
2022-10-17T10:15:59.788Z,17.23
2022-10-17T10:16:59.841Z,17.28
2022-10-17T10:17:59.921Z,17.32
2022-10-17T10:19:00.018Z,17.35
2022-10-17T10:20:00.221Z,17.40
2022-10-17T10:21:00.163Z,17.44
2022-10-17T10:22:00.247Z,17.47
2022-10-17T10:23:00.328Z,17.50
2022-10-17T10:24:00.403Z,17.54
2022-10-17T10:25:00.499Z,17.59
2022-10-17T10:26:00.588Z,17.66
2022-10-17T10:27:00.664Z,17.73
2022-10-17T10:28:01.554Z,17.79
2022-10-17T10:29:00.934Z,17.87
2022-10-17T10:30:00.890Z,17.94
2022-10-17T10:31:00.986Z,17.99
2022-10-17T10:32:01.061Z,18.06
2022-10-17T10:33:01.184Z,18.13
2022-10-17T10:34:01.232Z,18.19
2022-10-17T10:35:01.323Z,18.27
2022-10-17T10:36:01.425Z,18.31
2022-10-17T10:37:01.498Z,18.36
2022-10-17T10:38:01.562Z,18.40
2022-10-17T10:39:03.989Z,18.46
2022-10-17T10:40:01.753Z,18.52
2022-10-17T10:41:01.833Z,18.57
2022-10-17T10:42:01.915Z,18.61
2022-10-17T10:43:05.335Z,18.67
2022-10-17T10:44:02.057Z,18.72
2022-10-17T10:45:02.140Z,18.76
2022-10-17T10:46:02.238Z,18.80
2022-10-17T10:47:02.326Z,18.84
2022-10-17T10:48:02.453Z,18.86
2022-10-17T10:49:02.504Z,18.91
2022-10-17T10:50:02.607Z,18.94
2022-10-17T10:51:02.682Z,18.98
2022-10-17T10:52:02.804Z,19.01
2022-10-17T10:53:02.862Z,19.06
2022-10-17T10:54:02.951Z,19.10
2022-10-17T10:55:03.075Z,19.17
2022-10-17T10:56:03.133Z,19.18
2022-10-17T10:57:03.168Z,19.21
2022-10-17T10:58:03.254Z,19.23
2022-10-17T10:59:03.335Z,19.28
2022-10-17T11:00:03.410Z,19.31
2022-10-17T11:01:03.577Z,19.33
2022-10-17T11:02:03.592Z,19.38
2022-10-17T11:03:03.955Z,19.42
2022-10-17T11:04:03.757Z,19.46
2022-10-17T11:05:03.843Z,19.50
2022-10-17T11:06:03.989Z,19.53
2022-10-17T11:07:04.023Z,19.57
2022-10-17T11:08:04.107Z,19.57
2022-10-17T11:09:04.194Z,19.58
2022-10-17T11:10:04.306Z,19.57
2022-10-17T11:11:04.371Z,19.55
2022-10-17T11:12:04.443Z,19.51
2022-10-17T11:13:04.526Z,19.48
2022-10-17T11:14:04.605Z,19.42
2022-10-17T11:15:04.679Z,19.42
2022-10-17T11:16:04.765Z,19.40
2022-10-17T11:17:04.841Z,19.42
2022-10-17T11:18:04.922Z,19.42
2022-10-17T11:19:05.012Z,19.39
2022-10-17T11:20:05.087Z,19.39
2022-10-17T11:21:05.174Z,19.39
2022-10-17T11:22:05.258Z,19.38
2022-10-17T11:23:05.334Z,19.40
2022-10-17T11:24:06.891Z,19.43
2022-10-17T11:25:05.508Z,19.47
2022-10-17T11:26:05.603Z,19.50
2022-10-17T11:27:05.681Z,19.53
2022-10-17T11:28:05.754Z,19.55
2022-10-17T11:29:05.907Z,19.61
2022-10-17T11:30:05.908Z,19.65
2022-10-17T11:31:07.940Z,19.69
2022-10-17T11:32:06.102Z,19.70
2022-10-17T11:33:06.174Z,19.73
2022-10-17T11:34:06.266Z,19.75
2022-10-17T11:35:06.343Z,19.78
2022-10-17T11:36:06.457Z,19.79
2022-10-17T11:37:06.508Z,19.80
2022-10-17T11:38:06.576Z,19.83
2022-10-17T11:39:06.700Z,19.86
2022-10-17T11:40:06.796Z,19.86
2022-10-17T11:41:06.894Z,19.87
2022-10-17T11:42:06.990Z,19.88
2022-10-17T11:43:07.109Z,19.90
2022-10-17T11:44:07.187Z,19.91
2022-10-17T11:45:07.226Z,19.95
2022-10-17T11:46:07.502Z,20.00
2022-10-17T11:47:07.400Z,20.05
2022-10-17T11:48:07.476Z,20.06
2022-10-17T11:49:07.666Z,20.10
2022-10-17T11:52:07.849Z,20.13
2022-10-17T11:53:07.926Z,20.12
2022-10-17T11:54:08.014Z,20.10
2022-10-17T11:55:08.105Z,20.10
2022-10-17T11:56:08.214Z,20.10
2022-10-17T11:57:11.661Z,20.09
2022-10-17T11:58:08.345Z,20.06
2022-10-17T11:59:08.415Z,20.05
2022-10-17T12:00:08.500Z,20.00
2022-10-17T12:01:08.615Z,19.98
2022-10-17T12:02:08.655Z,19.95
2022-10-17T12:03:08.721Z,19.93
2022-10-17T12:04:08.863Z,19.91
2022-10-17T12:05:08.878Z,19.91
2022-10-17T12:06:09.002Z,19.93
2022-10-17T12:07:09.044Z,19.94
2022-10-17T12:08:09.136Z,19.97
2022-10-17T12:09:09.221Z,20.00
2022-10-17T12:10:09.309Z,20.06
2022-10-17T12:11:09.410Z,20.09
2022-10-17T12:12:09.484Z,20.15
2022-10-17T12:13:09.669Z,20.23
2022-10-17T12:14:09.651Z,20.27
2022-10-17T12:15:10.290Z,20.34
2022-10-17T12:16:11.034Z,20.41
2022-10-17T12:17:09.895Z,20.46
2022-10-17T12:18:09.991Z,20.51
2022-10-17T12:19:10.080Z,20.54
2022-10-17T12:20:10.152Z,20.59
2022-10-17T12:21:10.436Z,20.61
2022-10-17T12:22:10.308Z,20.64
2022-10-17T12:23:10.411Z,20.62
2022-10-17T12:24:10.499Z,20.62
2022-10-17T12:25:10.602Z,20.62
2022-10-17T12:26:10.696Z,20.62
2022-10-17T12:27:10.733Z,20.61
2022-10-17T12:28:10.810Z,20.61
2022-10-17T12:29:10.891Z,20.62
2022-10-17T12:30:10.977Z,20.58
2022-10-17T12:31:11.074Z,20.56
2022-10-17T12:32:11.164Z,20.56
2022-10-17T12:33:11.252Z,20.54
2022-10-17T12:34:11.373Z,20.56
2022-10-17T12:35:11.426Z,20.53
2022-10-17T12:36:11.521Z,20.53
2022-10-17T12:37:11.583Z,20.54
2022-10-17T12:38:11.681Z,20.54
2022-10-17T12:39:11.831Z,20.54
2022-10-17T12:40:11.834Z,20.56
2022-10-17T12:41:11.933Z,20.56
2022-10-17T12:42:11.971Z,20.54
2022-10-17T12:43:12.054Z,20.54
2022-10-17T12:44:12.161Z,20.49
2022-10-17T12:45:12.224Z,20.42
2022-10-17T12:46:12.335Z,20.35
2022-10-17T12:47:12.389Z,20.34
2022-10-17T12:48:12.480Z,20.33
2022-10-17T12:49:12.556Z,20.30
2022-10-17T12:50:12.652Z,20.27
2022-10-17T12:52:12.805Z,20.23
2022-10-17T12:53:16.899Z,20.23
2022-10-17T12:54:13.004Z,20.24
2022-10-17T12:55:13.974Z,20.27
2022-10-17T12:56:13.196Z,20.28
2022-10-17T12:57:13.215Z,20.31
2022-10-17T12:58:13.311Z,20.38
2022-10-17T12:59:13.384Z,20.42
2022-10-17T13:00:13.482Z,20.49
2022-10-17T13:01:29.107Z,20.53
2022-10-17T13:02:13.649Z,20.58
2022-10-17T13:03:13.757Z,20.64
2022-10-17T13:04:13.873Z,20.65
2022-10-17T13:05:13.932Z,20.69
2022-10-17T13:06:14.048Z,20.77
2022-10-17T13:07:14.110Z,20.80
2022-10-17T13:08:14.146Z,20.84